createdAt,value
2019-01-02T00:00:30.403Z,859.53
2019-01-02T00:01:30.151Z,859.53
2019-01-02T00:02:30.089Z,859.60
2019-01-02T00:03:30.112Z,859.47
2019-01-02T00:04:30.078Z,859.46
2019-01-02T00:05:30.055Z,859.47
2019-01-02T00:06:30.172Z,859.47
2019-01-02T00:07:30.037Z,859.46
2019-01-02T00:08:30.055Z,859.40
2019-01-02T00:09:30.218Z,859.33
2019-01-02T00:10:30.016Z,859.29
2019-01-02T00:11:30.117Z,859.26
2019-01-02T00:12:30.391Z,859.24
2019-01-02T00:13:29.988Z,859.24
2019-01-02T00:14:29.964Z,859.19
2019-01-02T00:15:29.954Z,859.24
2019-01-02T00:16:29.941Z,859.22
2019-01-02T00:17:30.023Z,859.26
2019-01-02T00:18:29.935Z,859.27
2019-01-02T00:19:29.943Z,859.27
2019-01-02T00:20:29.904Z,859.26
2019-01-02T00:21:29.915Z,859.24
2019-01-02T00:22:29.949Z,859.24
2019-01-02T00:23:29.919Z,859.20
2019-01-02T00:24:29.918Z,859.20
2019-01-02T00:25:30.070Z,859.16
2019-01-02T00:26:29.851Z,859.16
2019-01-02T00:27:29.822Z,859.15
2019-01-02T00:28:29.822Z,859.19
2019-01-02T00:29:29.892Z,859.19
2019-01-02T00:30:29.799Z,859.21
2019-01-02T00:31:29.789Z,859.12
2019-01-02T00:32:29.926Z,859.12
2019-01-02T00:33:29.779Z,859.11
2019-01-02T00:34:30.855Z,859.05
2019-01-02T00:35:29.765Z,859.00
2019-01-02T00:36:29.729Z,859.00
2019-01-02T00:37:29.707Z,858.95
2019-01-02T00:38:29.742Z,859.02
2019-01-02T00:39:29.695Z,859.03
2019-01-02T00:40:29.766Z,859.06
2019-01-02T00:41:29.860Z,859.01
2019-01-02T00:42:29.660Z,859.03
2019-01-02T00:43:29.707Z,859.03
2019-01-02T00:44:29.638Z,859.02
2019-01-02T00:45:29.631Z,859.04
2019-01-02T00:46:29.705Z,859.10
2019-01-02T00:47:29.610Z,859.06
2019-01-02T00:48:29.602Z,859.02
2019-01-02T00:49:29.656Z,858.98
2019-01-02T00:50:29.570Z,859.00
2019-01-02T00:51:29.620Z,858.97
2019-01-02T00:52:29.566Z,858.98
2019-01-02T00:53:29.598Z,859.00
2019-01-02T00:54:29.537Z,859.03
2019-01-02T00:55:29.579Z,859.02
2019-01-02T00:56:29.517Z,858.97
2019-01-02T00:57:29.765Z,858.93
2019-01-02T00:58:29.491Z,858.88
2019-01-02T00:59:29.526Z,858.90
2019-01-02T01:00:29.507Z,858.93
2019-01-02T01:01:29.480Z,858.94
2019-01-02T01:02:29.548Z,858.92
2019-01-02T01:03:29.435Z,858.93
2019-01-02T01:04:29.464Z,858.93
2019-01-02T01:05:29.639Z,858.91
2019-01-02T01:06:29.413Z,858.84
2019-01-02T01:07:29.699Z,858.79
2019-01-02T01:08:29.392Z,858.79
2019-01-02T01:09:29.408Z,858.83
2019-01-02T01:10:29.400Z,858.86
2019-01-02T01:11:29.360Z,858.85
2019-01-02T01:12:29.391Z,858.78
2019-01-02T01:13:29.356Z,858.88
2019-01-02T01:14:29.361Z,858.85
2019-01-02T01:15:29.314Z,858.88
2019-01-02T01:16:29.326Z,858.89
2019-01-02T01:17:29.342Z,858.94
2019-01-02T01:18:29.290Z,858.85
2019-01-02T01:19:29.302Z,858.90
2019-01-02T01:20:29.292Z,858.84
2019-01-02T01:21:29.304Z,858.80
2019-01-02T01:22:29.325Z,858.79
2019-01-02T01:23:29.236Z,858.75
2019-01-02T01:24:29.253Z,858.75
2019-01-02T01:25:29.236Z,858.75
2019-01-02T01:26:29.198Z,858.79
2019-01-02T01:27:29.264Z,858.80
2019-01-02T01:28:29.211Z,858.72
2019-01-02T01:29:29.184Z,858.71
2019-01-02T01:30:29.185Z,858.72
2019-01-02T01:31:29.146Z,858.68
2019-01-02T01:32:29.186Z,858.63
2019-01-02T01:33:29.186Z,858.64
2019-01-02T01:34:29.148Z,858.67
2019-01-02T01:35:29.103Z,858.73
2019-01-02T01:36:29.097Z,858.78
2019-01-02T01:37:29.146Z,858.78
2019-01-02T01:38:29.073Z,858.75
2019-01-02T01:39:29.080Z,858.72
2019-01-02T01:40:29.092Z,858.70
2019-01-02T01:41:29.041Z,858.68
2019-01-02T01:42:29.090Z,858.65
2019-01-02T01:43:29.058Z,858.63
2019-01-02T01:44:29.014Z,858.61
2019-01-02T01:45:28.998Z,858.69
2019-01-02T01:46:28.995Z,858.70
2019-01-02T01:47:29.074Z,858.63
2019-01-02T01:48:28.968Z,858.64
2019-01-02T01:49:29.005Z,858.69
2019-01-02T01:50:28.956Z,858.68
2019-01-02T01:51:28.949Z,858.66
2019-01-02T01:52:28.993Z,858.57
2019-01-02T01:53:28.944Z,858.55
2019-01-02T01:54:28.909Z,858.48
2019-01-02T01:55:28.929Z,858.44
2019-01-02T01:56:28.885Z,858.42
2019-01-02T01:57:28.947Z,858.41
2019-01-02T01:58:28.867Z,858.41
2019-01-02T01:59:28.932Z,858.38
2019-01-02T02:00:28.853Z,858.39
2019-01-02T02:01:28.858Z,858.34
2019-01-02T02:02:28.816Z,858.31
2019-01-02T02:03:28.889Z,858.26
2019-01-02T02:04:28.800Z,858.30
2019-01-02T02:05:28.843Z,858.26
2019-01-02T02:06:28.790Z,858.24
2019-01-02T02:07:28.806Z,858.25
2019-01-02T02:08:28.836Z,858.19
2019-01-02T02:09:28.799Z,858.23
2019-01-02T02:10:28.730Z,858.22
2019-01-02T02:11:28.758Z,858.15
2019-01-02T02:12:28.737Z,858.14
2019-01-02T02:13:28.729Z,858.09
2019-01-02T02:14:28.748Z,858.12
2019-01-02T02:15:28.672Z,858.12
2019-01-02T02:16:28.669Z,858.11
2019-01-02T02:17:28.669Z,858.17
2019-01-02T02:18:28.676Z,858.11
2019-01-02T02:19:28.737Z,858.00
2019-01-02T02:20:28.619Z,857.93
2019-01-02T02:21:28.615Z,857.92
2019-01-02T02:22:28.656Z,857.91
2019-01-02T02:23:28.598Z,857.97
2019-01-02T02:24:28.659Z,857.96
2019-01-02T02:25:28.605Z,857.87
2019-01-02T02:26:28.571Z,857.84
2019-01-02T02:27:28.556Z,857.79
2019-01-02T02:28:28.566Z,857.81
2019-01-02T02:29:28.574Z,857.80
2019-01-02T02:30:28.559Z,857.78
2019-01-02T02:31:28.507Z,857.86
2019-01-02T02:32:28.491Z,857.87
2019-01-02T02:33:28.487Z,857.85
2019-01-02T02:34:28.550Z,857.82
2019-01-02T02:35:28.479Z,857.81
2019-01-02T02:36:28.495Z,857.77
2019-01-02T02:37:28.465Z,857.71
2019-01-02T02:38:28.433Z,857.66
2019-01-02T02:39:28.493Z,857.68
2019-01-02T02:40:28.417Z,857.71
2019-01-02T02:41:28.402Z,857.75
2019-01-02T02:42:28.429Z,857.84
2019-01-02T02:43:28.381Z,857.95
2019-01-02T02:44:28.440Z,857.94
2019-01-02T02:45:28.805Z,857.89
2019-01-02T02:46:28.349Z,857.88
2019-01-02T02:47:28.342Z,857.80
2019-01-02T02:48:28.367Z,857.74
2019-01-02T02:49:28.313Z,857.75
2019-01-02T02:50:28.362Z,857.64
2019-01-02T02:51:28.320Z,857.66
2019-01-02T02:52:28.278Z,857.66
2019-01-02T02:53:28.293Z,857.74
2019-01-02T02:54:28.300Z,857.80
2019-01-02T02:55:28.297Z,857.78
2019-01-02T02:56:28.254Z,857.73
2019-01-02T02:57:28.227Z,857.73
2019-01-02T02:58:28.219Z,857.73
2019-01-02T02:59:28.205Z,857.74
2019-01-02T03:00:28.278Z,857.68
2019-01-02T03:01:28.209Z,857.63
2019-01-02T03:02:28.257Z,857.57
2019-01-02T03:03:28.168Z,857.41
2019-01-02T03:04:28.150Z,857.26
2019-01-02T03:05:28.205Z,857.25
2019-01-02T03:06:28.172Z,857.25
2019-01-02T03:07:28.120Z,857.24
2019-01-02T03:08:28.158Z,857.19
2019-01-02T03:09:28.142Z,857.18
2019-01-02T03:10:28.133Z,857.21
2019-01-02T03:11:28.083Z,857.25
2019-01-02T03:12:28.071Z,857.26
2019-01-02T03:13:28.157Z,857.20
2019-01-02T03:14:28.063Z,857.18
2019-01-02T03:15:28.054Z,857.13
2019-01-02T03:16:28.018Z,857.07
2019-01-02T03:17:28.029Z,857.03
2019-01-02T03:18:28.060Z,856.99
2019-01-02T03:19:28.024Z,857.02
2019-01-02T03:20:27.985Z,857.01
2019-01-02T03:21:27.968Z,856.94
2019-01-02T03:22:27.982Z,856.91
2019-01-02T03:23:27.998Z,857.02
2019-01-02T03:24:27.976Z,857.10
2019-01-02T03:25:27.929Z,857.10
2019-01-02T03:26:27.912Z,857.09
2019-01-02T03:27:27.910Z,857.05
2019-01-02T03:28:27.975Z,857.06
2019-01-02T03:29:28.292Z,857.10
2019-01-02T03:30:27.965Z,857.11
2019-01-02T03:31:27.882Z,857.00
2019-01-02T03:32:27.856Z,856.90
2019-01-02T03:33:27.852Z,856.91
2019-01-02T03:34:27.833Z,856.94
2019-01-02T03:35:27.873Z,856.95
2019-01-02T03:36:27.880Z,856.97
2019-01-02T03:37:27.796Z,856.93
2019-01-02T03:38:27.793Z,856.80
2019-01-02T03:39:27.798Z,856.67
2019-01-02T03:40:27.824Z,856.51
2019-01-02T03:41:27.765Z,856.47
2019-01-02T03:42:27.813Z,856.56
2019-01-02T03:43:27.741Z,856.47
2019-01-02T03:44:27.730Z,856.43
2019-01-02T03:45:27.766Z,856.52
2019-01-02T03:46:27.792Z,856.48
2019-01-02T03:47:27.698Z,856.47
2019-01-02T03:48:27.724Z,856.48
2019-01-02T03:49:27.671Z,856.53
2019-01-02T03:50:27.667Z,856.50
2019-01-02T03:51:27.725Z,856.45
2019-01-02T03:52:27.644Z,856.46
2019-01-02T03:53:27.679Z,856.49
2019-01-02T03:54:27.671Z,856.47
2019-01-02T03:55:27.618Z,856.50
2019-01-02T03:56:27.598Z,856.42
2019-01-02T03:57:27.634Z,856.28
2019-01-02T03:58:27.779Z,856.18
2019-01-02T03:59:27.583Z,856.17
2019-01-02T04:00:27.597Z,856.27
2019-01-02T04:01:27.545Z,856.34
2019-01-02T04:02:27.551Z,856.31
2019-01-02T04:03:27.608Z,856.25
2019-01-02T04:04:27.512Z,856.22
2019-01-02T04:05:27.515Z,856.23
2019-01-02T04:06:27.544Z,856.19
2019-01-02T04:07:27.481Z,856.18
2019-01-02T04:08:27.550Z,856.05
2019-01-02T04:09:27.464Z,856.02
2019-01-02T04:10:27.448Z,856.06
2019-01-02T04:11:27.449Z,856.12
2019-01-02T04:12:27.463Z,856.22
2019-01-02T04:13:27.483Z,856.11
2019-01-02T04:14:27.436Z,855.91
2019-01-02T04:15:27.407Z,855.92
2019-01-02T04:16:27.389Z,856.04
2019-01-02T04:17:27.425Z,855.99
2019-01-02T04:18:27.419Z,855.80
2019-01-02T04:19:27.354Z,855.74
2019-01-02T04:20:27.343Z,855.72
2019-01-02T04:21:27.359Z,855.72
2019-01-02T04:22:27.328Z,855.72
2019-01-02T04:23:27.417Z,855.81
2019-01-02T04:24:27.770Z,855.85
2019-01-02T04:25:27.342Z,855.83
2019-01-02T04:26:27.284Z,855.83
2019-01-02T04:27:27.294Z,855.85
2019-01-02T04:28:27.267Z,855.77
2019-01-02T04:29:27.289Z,855.76
2019-01-02T04:30:27.328Z,855.77
2019-01-02T04:31:27.237Z,855.85
2019-01-02T04:32:27.230Z,855.93
2019-01-02T04:33:27.225Z,856.00
2019-01-02T04:34:27.205Z,855.95
2019-01-02T04:35:27.319Z,855.83
2019-01-02T04:36:27.180Z,855.66
2019-01-02T04:37:27.168Z,855.71
2019-01-02T04:38:27.188Z,855.78
2019-01-02T04:39:27.149Z,855.87
2019-01-02T04:40:27.206Z,855.86
2019-01-02T04:41:27.173Z,855.36
2019-01-02T04:42:27.117Z,855.75
2019-01-02T04:43:27.109Z,855.97
2019-01-02T04:44:27.136Z,855.96
2019-01-02T04:45:27.160Z,855.95
2019-01-02T04:46:27.274Z,855.88
2019-01-02T04:47:27.088Z,855.89
2019-01-02T04:48:27.070Z,855.91
2019-01-02T04:49:27.044Z,856.14
2019-01-02T04:50:27.073Z,856.24
2019-01-02T04:51:27.096Z,856.09
2019-01-02T04:52:27.016Z,855.87
2019-01-02T04:53:27.006Z,855.82
2019-01-02T04:54:27.013Z,856.16
2019-01-02T04:55:27.022Z,855.80
2019-01-02T04:56:27.028Z,855.95
2019-01-02T04:57:27.000Z,856.15
2019-01-02T04:58:26.952Z,856.07
2019-01-02T04:59:26.954Z,856.01
2019-01-02T05:00:26.930Z,856.01
2019-01-02T05:01:26.985Z,855.94
2019-01-02T05:02:26.927Z,855.96
2019-01-02T05:03:26.939Z,855.92
2019-01-02T05:04:26.893Z,856.00
2019-01-02T05:05:26.879Z,856.15
2019-01-02T05:06:26.917Z,856.24
2019-01-02T05:07:27.252Z,856.30
2019-01-02T05:08:26.852Z,855.92
2019-01-02T05:09:26.894Z,856.04
2019-01-02T05:10:26.853Z,855.87
2019-01-02T05:11:26.817Z,855.65
2019-01-02T05:12:26.857Z,855.95
2019-01-02T05:13:26.817Z,855.99
2019-01-02T05:14:26.800Z,856.01
2019-01-02T05:15:26.808Z,856.20
2019-01-02T05:16:26.763Z,856.22
2019-01-02T05:17:26.830Z,856.14
2019-01-02T05:18:26.777Z,855.78
2019-01-02T05:19:26.732Z,855.73
2019-01-02T05:20:26.773Z,855.73
2019-01-02T05:21:26.724Z,855.71
2019-01-02T05:22:26.808Z,855.83
2019-01-02T05:23:26.699Z,855.78
2019-01-02T05:24:26.676Z,855.84
2019-01-02T05:25:26.689Z,855.89
2019-01-02T05:26:26.708Z,855.95
2019-01-02T05:27:26.712Z,855.90
2019-01-02T05:28:26.639Z,855.89
2019-01-02T05:29:26.646Z,855.83
2019-01-02T05:30:27.220Z,855.91
2019-01-02T05:31:26.620Z,856.05
2019-01-02T05:32:26.693Z,856.04
2019-01-02T05:33:26.737Z,856.12
2019-01-02T05:34:26.597Z,856.11
2019-01-02T05:35:26.650Z,856.14
2019-01-02T05:36:26.570Z,856.18
2019-01-02T05:37:26.548Z,856.10
2019-01-02T05:38:26.588Z,856.14
2019-01-02T05:39:26.549Z,856.19
2019-01-02T05:40:26.524Z,856.22
2019-01-02T05:41:26.543Z,856.14
2019-01-02T05:42:26.494Z,856.07
2019-01-02T05:43:26.540Z,856.08
2019-01-02T05:44:26.485Z,856.21
2019-01-02T05:45:26.464Z,856.35
2019-01-02T05:46:26.459Z,856.40
2019-01-02T05:47:26.481Z,856.45
2019-01-02T05:48:26.482Z,856.35
2019-01-02T05:49:26.429Z,856.38
2019-01-02T05:50:26.420Z,856.42
2019-01-02T05:51:26.430Z,856.48
2019-01-02T05:52:26.394Z,856.50
2019-01-02T05:53:26.472Z,856.34
2019-01-02T05:54:26.384Z,856.22
2019-01-02T05:55:26.360Z,856.32
2019-01-02T05:56:26.344Z,856.25
2019-01-02T05:57:26.367Z,856.15
2019-01-02T05:58:26.378Z,856.22
2019-01-02T05:59:26.763Z,856.25
2019-01-02T06:00:26.316Z,856.25
2019-01-02T06:01:26.295Z,856.33
2019-01-02T06:02:26.299Z,856.37
2019-01-02T06:03:26.352Z,856.37
2019-01-02T06:04:26.742Z,856.34
2019-01-02T06:05:26.294Z,856.39
2019-01-02T06:06:26.243Z,856.23
2019-01-02T06:07:26.243Z,856.16
2019-01-02T06:08:26.234Z,856.16
2019-01-02T06:09:26.265Z,856.08
2019-01-02T06:10:27.501Z,856.12
2019-01-02T06:11:26.243Z,856.28
2019-01-02T06:12:26.236Z,856.21
2019-01-02T06:13:26.188Z,856.18
2019-01-02T06:14:26.167Z,856.04
2019-01-02T06:15:26.142Z,856.04
2019-01-02T06:16:26.143Z,856.14
2019-01-02T06:17:26.223Z,856.17
2019-01-02T06:18:26.165Z,856.27
2019-01-02T06:19:26.101Z,856.31
2019-01-02T06:20:26.096Z,856.33
2019-01-02T06:21:26.099Z,856.33
2019-01-02T06:22:26.125Z,856.31
2019-01-02T06:23:26.096Z,856.31
2019-01-02T06:24:26.075Z,856.24
2019-01-02T06:25:26.085Z,856.29
2019-01-02T06:26:26.059Z,856.36
2019-01-02T06:27:26.019Z,856.32
2019-01-02T06:28:26.020Z,856.35
2019-01-02T06:29:25.996Z,856.42
2019-01-02T06:30:26.060Z,856.53
2019-01-02T06:31:26.012Z,856.51
2019-01-02T06:32:25.970Z,856.61
2019-01-02T06:33:25.955Z,856.60
2019-01-02T06:34:25.948Z,856.72
2019-01-02T06:35:26.001Z,856.76
2019-01-02T06:36:27.150Z,856.86
2019-01-02T06:37:25.918Z,856.83
2019-01-02T06:38:25.906Z,856.69
2019-01-02T06:39:25.894Z,856.69
2019-01-02T06:40:25.929Z,856.86
2019-01-02T06:41:26.210Z,856.84
2019-01-02T06:42:25.900Z,856.85
2019-01-02T06:43:25.872Z,856.78
2019-01-02T06:44:25.885Z,856.87
2019-01-02T06:45:25.829Z,856.97
2019-01-02T06:46:25.913Z,857.04
2019-01-02T06:47:25.811Z,857.10
2019-01-02T06:48:25.848Z,857.22
2019-01-02T06:49:25.851Z,857.14
2019-01-02T06:50:25.772Z,857.16
2019-01-02T06:51:25.821Z,857.04
2019-01-02T06:52:25.753Z,857.03
2019-01-02T06:53:25.748Z,857.14
2019-01-02T06:54:25.772Z,857.29
2019-01-02T06:55:25.740Z,857.41
2019-01-02T06:56:25.768Z,857.51
2019-01-02T06:57:25.704Z,857.43
2019-01-02T06:58:25.691Z,857.23
2019-01-02T06:59:25.746Z,857.31
2019-01-02T07:00:25.707Z,857.36
2019-01-02T07:01:25.674Z,857.41
2019-01-02T07:02:25.648Z,857.48
2019-01-02T07:03:25.639Z,857.43
2019-01-02T07:04:25.675Z,857.35
2019-01-02T07:05:25.640Z,857.30
2019-01-02T07:06:25.656Z,857.25
2019-01-02T07:07:31.077Z,857.30
2019-01-02T07:08:26.590Z,857.52
2019-01-02T07:09:25.576Z,857.67
2019-01-02T07:10:25.580Z,857.74
2019-01-02T07:11:25.581Z,857.63
2019-01-02T07:12:25.591Z,857.57
2019-01-02T07:13:25.530Z,857.57
2019-01-02T07:14:25.526Z,857.52
2019-01-02T07:15:25.518Z,857.38
2019-01-02T07:16:25.511Z,857.58
2019-01-02T07:17:25.593Z,857.73
2019-01-02T07:18:25.478Z,857.78
2019-01-02T07:19:25.467Z,857.70
2019-01-02T07:20:25.457Z,857.67
2019-01-02T07:21:25.451Z,857.74
2019-01-02T07:22:25.523Z,857.69
2019-01-02T07:23:25.477Z,857.50
2019-01-02T07:24:25.465Z,857.45
2019-01-02T07:25:25.429Z,857.61
2019-01-02T07:26:25.432Z,857.63
2019-01-02T07:27:25.403Z,857.61
2019-01-02T07:28:25.386Z,857.63
2019-01-02T07:29:25.420Z,857.70
2019-01-02T07:30:25.362Z,857.86
2019-01-02T07:31:25.344Z,857.84
2019-01-02T07:32:25.381Z,858.01
2019-01-02T07:33:25.354Z,858.02
2019-01-02T07:34:25.394Z,858.02
2019-01-02T07:35:25.310Z,858.04
2019-01-02T07:36:25.315Z,857.93
2019-01-02T07:37:27.003Z,857.78
2019-01-02T07:38:25.312Z,857.81
2019-01-02T07:39:25.312Z,857.80
2019-01-02T07:40:30.507Z,857.93
2019-01-02T07:41:25.280Z,857.89
2019-01-02T07:42:25.265Z,857.95
2019-01-02T07:43:25.282Z,857.95
2019-01-02T07:44:25.296Z,857.76
2019-01-02T07:45:25.237Z,857.85
2019-01-02T07:46:25.185Z,858.07
2019-01-02T07:47:25.252Z,858.05
2019-01-02T07:48:25.208Z,857.93
2019-01-02T07:49:25.209Z,857.83
2019-01-02T07:50:25.145Z,857.87
2019-01-02T07:51:25.159Z,857.94
2019-01-02T07:52:25.134Z,857.87
2019-01-02T07:53:25.151Z,857.95
2019-01-02T07:54:25.184Z,857.84
2019-01-02T07:55:25.093Z,857.75
2019-01-02T07:56:25.118Z,857.81
2019-01-02T07:57:25.077Z,857.90
2019-01-02T07:58:25.070Z,858.01
2019-01-02T07:59:25.192Z,857.85
2019-01-02T08:00:25.208Z,857.81
2019-01-02T08:01:25.030Z,857.94
2019-01-02T08:02:25.658Z,857.98
2019-01-02T08:03:25.021Z,858.07
2019-01-02T08:04:24.999Z,858.07
2019-01-02T08:05:25.046Z,857.99
2019-01-02T08:06:25.021Z,858.01
2019-01-02T08:07:24.962Z,858.14
2019-01-02T08:08:25.627Z,858.17
2019-01-02T08:09:24.984Z,858.12
2019-01-02T08:10:24.988Z,857.96
2019-01-02T08:11:24.954Z,857.90
2019-01-02T08:12:24.908Z,857.88
2019-01-02T08:13:24.921Z,857.92
2019-01-02T08:14:24.964Z,857.94
2019-01-02T08:15:24.909Z,858.01
2019-01-02T08:16:24.874Z,858.12
2019-01-02T08:17:24.881Z,858.12
2019-01-02T08:18:24.916Z,858.03
2019-01-02T08:19:24.897Z,858.08
2019-01-02T08:20:24.835Z,858.08
2019-01-02T08:21:24.867Z,858.03
2019-01-02T08:22:24.835Z,858.04
2019-01-02T08:23:24.851Z,858.10
2019-01-02T08:24:24.796Z,858.13
2019-01-02T08:25:24.815Z,858.17
2019-01-02T08:26:24.800Z,858.26
2019-01-02T08:27:24.777Z,858.18
2019-01-02T08:28:24.803Z,858.13
2019-01-02T08:29:24.770Z,858.05
2019-01-02T08:30:24.786Z,858.12
2019-01-02T08:31:24.712Z,858.11
2019-01-02T08:32:24.712Z,858.19
2019-01-02T08:33:24.708Z,858.25
2019-01-02T08:34:24.712Z,858.19
2019-01-02T08:35:24.751Z,858.15
2019-01-02T08:36:24.682Z,858.28
2019-01-02T08:37:24.851Z,858.38
2019-01-02T08:38:24.641Z,858.33
2019-01-02T08:39:24.708Z,858.24
2019-01-02T08:40:24.647Z,858.31
2019-01-02T08:41:24.615Z,858.42
2019-01-02T08:42:24.646Z,858.39
2019-01-02T08:43:24.605Z,858.32
2019-01-02T08:44:24.570Z,858.19
2019-01-02T08:45:24.639Z,858.24
2019-01-02T08:46:24.547Z,858.24
2019-01-02T08:47:24.573Z,858.39
2019-01-02T08:48:24.584Z,858.45
2019-01-02T08:49:24.528Z,858.48
2019-01-02T08:50:24.507Z,858.55
2019-01-02T08:51:24.528Z,858.60
2019-01-02T08:52:24.536Z,858.73
2019-01-02T08:53:24.496Z,858.74
2019-01-02T08:54:24.462Z,858.68
2019-01-02T08:55:24.453Z,858.65
2019-01-02T08:56:24.643Z,858.62
2019-01-02T08:57:24.522Z,858.69
2019-01-02T08:58:24.444Z,858.85
2019-01-02T08:59:24.478Z,858.91
2019-01-02T09:00:24.409Z,858.81
2019-01-02T09:01:24.411Z,858.89
2019-01-02T09:02:24.454Z,858.83
2019-01-02T09:03:24.385Z,858.74
2019-01-02T09:04:24.353Z,858.68
2019-01-02T09:05:24.479Z,858.58
2019-01-02T09:06:24.349Z,858.70
2019-01-02T09:07:24.334Z,858.91
2019-01-02T09:08:24.331Z,859.01
2019-01-02T09:09:24.319Z,859.07
2019-01-02T09:10:24.358Z,859.16
2019-01-02T09:11:24.328Z,859.17
2019-01-02T09:12:24.286Z,859.19
2019-01-02T09:13:24.268Z,859.11
2019-01-02T09:14:24.261Z,859.11
2019-01-02T09:15:24.319Z,859.10
2019-01-02T09:16:24.448Z,859.10
2019-01-02T09:17:24.293Z,859.05
2019-01-02T09:18:24.209Z,859.05
2019-01-02T09:19:24.268Z,859.08
2019-01-02T09:20:24.219Z,859.21
2019-01-02T09:21:24.182Z,859.21
2019-01-02T09:22:24.179Z,859.16
2019-01-02T09:23:24.198Z,859.10
2019-01-02T09:24:24.192Z,859.12
2019-01-02T09:25:24.131Z,859.27
2019-01-02T09:26:24.167Z,859.26
2019-01-02T09:27:24.118Z,859.18
2019-01-02T09:28:24.204Z,859.25
2019-01-02T09:29:24.096Z,859.21
2019-01-02T09:30:24.080Z,859.13
2019-01-02T09:31:24.126Z,859.17
2019-01-02T09:32:24.058Z,859.31
2019-01-02T09:33:24.134Z,859.40
2019-01-02T09:34:24.054Z,859.39
2019-01-02T09:35:24.052Z,859.26
2019-01-02T09:36:24.036Z,859.19
2019-01-02T09:37:24.061Z,859.12
2019-01-02T09:38:24.071Z,859.10
2019-01-02T09:39:24.192Z,858.80
2019-01-02T09:40:23.983Z,859.20
2019-01-02T09:41:24.026Z,859.19
2019-01-02T09:42:23.955Z,859.07
2019-01-02T09:43:24.647Z,859.24
2019-01-02T09:44:23.933Z,859.25
2019-01-02T09:45:23.974Z,859.16
2019-01-02T09:46:23.967Z,859.14
2019-01-02T09:47:24.084Z,859.12
2019-01-02T09:48:23.897Z,859.16
2019-01-02T09:49:23.880Z,859.12
2019-01-02T09:50:23.876Z,859.03
2019-01-02T09:51:23.860Z,859.13
2019-01-02T09:52:23.942Z,859.05
2019-01-02T09:53:23.887Z,859.20
2019-01-02T09:54:23.829Z,859.10
2019-01-02T09:55:23.900Z,859.22
2019-01-02T09:56:23.829Z,859.12
2019-01-02T09:57:23.795Z,859.06
2019-01-02T09:58:23.822Z,859.14
2019-01-02T09:59:23.794Z,859.09
2019-01-02T10:00:23.847Z,859.05
2019-01-02T10:01:23.785Z,859.02
2019-01-02T10:02:23.755Z,859.12
2019-01-02T10:03:23.771Z,859.10
2019-01-02T10:04:23.759Z,859.09
2019-01-02T10:05:23.772Z,859.04
2019-01-02T10:06:23.709Z,859.08
2019-01-02T10:07:23.692Z,859.06
2019-01-02T10:08:23.699Z,859.12
2019-01-02T10:09:23.712Z,859.07
2019-01-02T10:10:23.768Z,859.07
2019-01-02T10:11:23.648Z,859.10
2019-01-02T10:12:23.690Z,859.15
2019-01-02T10:13:23.679Z,859.12
2019-01-02T10:14:23.620Z,859.08
2019-01-02T10:15:24.142Z,859.16
2019-01-02T10:16:24.165Z,859.19
2019-01-02T10:17:23.600Z,859.18
2019-01-02T10:18:23.588Z,859.10
2019-01-02T10:19:23.573Z,859.01
2019-01-02T10:20:24.127Z,859.06
2019-01-02T10:21:23.629Z,859.12
2019-01-02T10:22:23.589Z,859.06
2019-01-02T10:23:23.525Z,858.88
2019-01-02T10:24:23.518Z,858.84
2019-01-02T10:25:23.520Z,858.90
2019-01-02T10:26:23.557Z,858.98
2019-01-02T10:27:23.500Z,858.91
2019-01-02T10:28:23.564Z,858.90
2019-01-02T10:29:23.595Z,859.00
2019-01-02T10:30:34.275Z,859.00
2019-01-02T10:31:23.502Z,858.93
2019-01-02T10:32:23.507Z,858.85
2019-01-02T10:33:23.424Z,858.79
2019-01-02T10:34:23.417Z,858.79
2019-01-02T10:35:23.406Z,858.69
2019-01-02T10:36:23.456Z,858.67
2019-01-02T10:37:23.384Z,858.64
2019-01-02T10:38:23.403Z,858.73
2019-01-02T10:39:23.378Z,858.77
2019-01-02T10:40:23.411Z,858.77
2019-01-02T10:41:23.465Z,858.75
2019-01-02T10:42:23.332Z,858.64
2019-01-02T10:43:23.339Z,858.66
2019-01-02T10:44:23.370Z,858.64
2019-01-02T10:45:23.354Z,858.70
2019-01-02T10:46:23.348Z,858.70
2019-01-02T10:47:23.304Z,858.63
2019-01-02T10:48:23.280Z,858.69
2019-01-02T10:49:23.369Z,858.66
2019-01-02T10:50:23.277Z,858.65
2019-01-02T10:51:23.396Z,858.59
2019-01-02T10:52:30.213Z,858.56
2019-01-02T10:53:23.266Z,858.56
2019-01-02T10:54:23.220Z,858.55
2019-01-02T10:55:23.200Z,858.51
2019-01-02T10:56:23.296Z,858.56
2019-01-02T10:57:23.267Z,858.53
2019-01-02T10:58:23.222Z,858.51
2019-01-02T10:59:23.160Z,858.62
2019-01-02T11:00:23.150Z,858.64
2019-01-02T11:01:23.194Z,858.60
2019-01-02T11:02:23.121Z,858.61
2019-01-02T11:03:23.305Z,858.57
2019-01-02T11:04:23.271Z,858.53
2019-01-02T11:05:23.085Z,858.53
2019-01-02T11:06:23.080Z,858.44
2019-01-02T11:07:23.116Z,858.39
2019-01-02T11:08:24.020Z,858.41
2019-01-02T11:09:23.087Z,858.43
2019-01-02T11:10:23.061Z,858.53
2019-01-02T11:11:23.023Z,858.65
2019-01-02T11:12:23.048Z,858.64
2019-01-02T11:13:23.285Z,858.39
2019-01-02T11:14:22.992Z,858.23
2019-01-02T11:15:23.031Z,858.25
2019-01-02T11:16:24.029Z,858.21
2019-01-02T11:17:22.973Z,858.17
2019-01-02T11:18:23.006Z,858.13
2019-01-02T11:19:23.086Z,858.12
2019-01-02T11:20:22.950Z,858.09
2019-01-02T11:21:22.970Z,858.18
2019-01-02T11:22:22.946Z,858.29
2019-01-02T11:23:22.897Z,858.31
2019-01-02T11:24:22.965Z,858.20
2019-01-02T11:25:22.895Z,858.08
2019-01-02T11:26:22.900Z,858.08
2019-01-02T11:27:22.889Z,857.99
2019-01-02T11:28:22.922Z,858.02
2019-01-02T11:29:22.829Z,857.96
2019-01-02T11:30:22.849Z,857.97
2019-01-02T11:31:22.853Z,857.98
2019-01-02T11:32:22.826Z,858.05
2019-01-02T11:33:22.855Z,858.03
2019-01-02T11:34:22.843Z,858.02
2019-01-02T11:35:22.773Z,858.01
2019-01-02T11:36:22.770Z,858.01
2019-01-02T11:37:22.794Z,858.07
2019-01-02T11:38:22.849Z,858.10
2019-01-02T11:39:22.752Z,857.99
2019-01-02T11:40:22.718Z,857.88
2019-01-02T11:41:22.711Z,857.79
2019-01-02T11:42:22.977Z,857.72
2019-01-02T11:43:23.122Z,857.74
2019-01-02T11:44:22.698Z,857.65
2019-01-02T11:45:22.868Z,857.66
2019-01-02T11:46:22.693Z,857.68
2019-01-02T11:47:22.648Z,857.66
2019-01-02T11:48:30.251Z,857.73
2019-01-02T11:49:22.663Z,857.78
2019-01-02T11:50:22.640Z,857.74
2019-01-02T11:51:22.625Z,857.75
2019-01-02T11:52:22.649Z,857.75
2019-01-02T11:53:22.628Z,857.72
2019-01-02T11:54:22.613Z,857.71
2019-01-02T11:55:22.562Z,857.70
2019-01-02T11:56:22.578Z,857.77
2019-01-02T11:57:22.600Z,857.85
2019-01-02T11:58:22.527Z,857.76
2019-01-02T11:59:22.560Z,857.64
2019-01-02T12:00:22.617Z,857.62
2019-01-02T12:01:22.512Z,857.68
2019-01-02T12:02:22.489Z,857.71
2019-01-02T12:03:22.503Z,857.72
2019-01-02T12:04:22.473Z,857.68
2019-01-02T12:05:22.455Z,857.65
2019-01-02T12:06:22.522Z,857.69
2019-01-02T12:07:22.437Z,857.69
2019-01-02T12:08:22.433Z,857.70
2019-01-02T12:09:22.410Z,857.76
2019-01-02T12:10:22.401Z,857.72
2019-01-02T12:11:22.414Z,857.72
2019-01-02T12:12:22.441Z,857.76
2019-01-02T12:13:22.379Z,857.74
2019-01-02T12:14:22.361Z,857.70
2019-01-02T12:15:22.351Z,857.66
2019-01-02T12:16:22.336Z,857.64
2019-01-02T12:17:22.624Z,857.67
2019-01-02T12:18:23.055Z,857.69
2019-01-02T12:19:22.311Z,857.63
2019-01-02T12:20:22.339Z,857.55
2019-01-02T12:21:22.283Z,857.52
2019-01-02T12:22:22.281Z,857.55
2019-01-02T12:23:22.304Z,857.55
2019-01-02T12:24:22.280Z,857.51
2019-01-02T12:25:22.455Z,857.54
2019-01-02T12:26:29.787Z,857.53
2019-01-02T12:27:22.274Z,857.55
2019-01-02T12:28:22.247Z,857.55